Time;durP1;ratioP1;P1;durP2;ratioP2;P2;SDS_P1;SDS_P2;PMS_P1;PMS_P2;Temp;Humidity;BMP_temperature;BMP_pressure;BME280_temperature;BME280_humidity;BME280_pressure;Samples;Min_cycle;Max_cycle;Signal;HPM_P1;HPM_P2
2022/11/23 00:01:33;;;;;;;2.20;1.98;;;;;;;;;;5062653;28;20223;-67
2022/11/23 00:04:01;;;;;;;5.43;2.25;;;;;;;;;;5062491;28;20228;-67
2022/11/23 00:06:27;;;;;;;5.45;2.72;;;;;;;;;;5062568;28;20197;-67
2022/11/23 00:08:54;;;;;;;2.90;2.30;;;;;;;;;;5062223;28;20189;-67
2022/11/23 00:11:21;;;;;;;5.85;2.63;;;;;;;;;;5062474;28;20197;-67
2022/11/23 00:13:47;;;;;;;4.25;2.03;;;;;;;;;;5062583;28;20197;-67
2022/11/23 00:16:15;;;;;;;5.38;2.20;;;;;;;;;;5062502;28;20197;-67
2022/11/23 00:18:42;;;;;;;2.25;2.00;;;;;;;;;;5062412;28;20260;-67
2022/11/23 00:21:09;;;;;;;9.25;2.40;;;;;;;;;;5062383;28;20203;-67
2022/11/23 00:23:36;;;;;;;2.72;1.98;;;;;;;;;;5062266;28;20397;-67
2022/11/23 00:26:02;;;;;;;3.08;1.77;;;;;;;;;;5062087;28;20204;-67
2022/11/23 00:28:28;;;;;;;3.03;2.22;;;;;;;;;;5062040;28;20248;-67
2022/11/23 00:30:55;;;;;;;2.25;2.08;;;;;;;;;;5062094;28;20201;-67
2022/11/23 00:33:23;;;;;;;3.58;1.80;;;;;;;;;;5062116;28;20197;-67
2022/11/23 00:35:58;;;;;;;1.95;1.67;;;;;;;;;;5062062;28;20203;-67
2022/11/23 00:38:24;;;;;;;4.53;2.10;;;;;;;;;;5061760;28;20197;-67
2022/11/23 00:40:57;;;;;;;4.57;1.90;;;;;;;;;;5061733;28;20204;-67
2022/11/23 00:43:23;;;;;;;2.92;2.08;;;;;;;;;;5062070;28;20570;-67
2022/11/23 00:45:49;;;;;;;6.72;1.75;;;;;;;;;;5062018;28;20197;-67
2022/11/23 00:48:16;;;;;;;2.08;1.65;;;;;;;;;;5061748;28;20504;-67
2022/11/23 00:50:43;;;;;;;3.45;2.08;;;;;;;;;;5061916;28;20438;-67
2022/11/23 00:53:10;;;;;;;2.38;1.77;;;;;;;;;;5062172;28;20200;-67
2022/11/23 00:55:36;;;;;;;3.28;1.58;;;;;;;;;;5061979;28;20522;-67
2022/11/23 00:58:02;;;;;;;4.28;1.73;;;;;;;;;;5061776;28;20203;-67
2022/11/23 01:00:29;;;;;;;2.53;2.00;;;;;;;;;;5061831;28;20203;-67
2022/11/23 01:02:55;;;;;;;3.85;1.90;;;;;;;;;;5061693;28;20395;-67
2022/11/23 01:05:21;;;;;;;3.60;1.80;;;;;;;;;;5061612;28;20204;-67
2022/11/23 01:07:49;;;;;;;4.10;1.70;;;;;;;;;;5061530;28;20209;-67
2022/11/23 01:10:15;;;;;;;5.97;2.80;;;;;;;;;;5062085;28;20203;-67
2022/11/23 01:12:41;;;;;;;3.58;2.40;;;;;;;;;;5061710;28;20197;-67
2022/11/23 01:15:08;;;;;;;5.15;2.28;;;;;;;;;;5061635;28;20205;-67
2022/11/23 01:17:34;;;;;;;2.83;2.42;;;;;;;;;;5064224;28;20201;-67
2022/11/23 01:20:01;;;;;;;4.20;2.58;;;;;;;;;;5065632;28;20613;-67
2022/11/23 01:22:27;;;;;;;3.88;2.17;;;;;;;;;;5065923;28;20232;-67
2022/11/23 01:24:55;;;;;;;5.80;2.72;;;;;;;;;;5065597;28;20205;-67
2022/11/23 01:27:21;;;;;;;3.65;2.28;;;;;;;;;;5065491;28;20242;-67
2022/11/23 01:29:47;;;;;;;3.75;2.60;;;;;;;;;;5065418;28;20196;-67
2022/11/23 01:32:13;;;;;;;7.90;3.20;;;;;;;;;;5065455;28;20207;-67
2022/11/23 01:34:40;;;;;;;9.43;3.28;;;;;;;;;;5065399;28;20203;-67
2022/11/23 01:37:06;;;;;;;10.30;3.58;;;;;;;;;;5065534;28;20449;-67
2022/11/23 01:39:32;;;;;;;6.05;3.17;;;;;;;;;;5065302;28;20212;-67
2022/11/23 01:42:00;;;;;;;6.75;3.60;;;;;;;;;;5065161;28;20197;-67
2022/11/23 01:44:28;;;;;;;4.85;3.42;;;;;;;;;;5065235;28;20435;-67
2022/11/23 01:46:55;;;;;;;6.63;3.92;;;;;;;;;;5065172;28;20225;-67
2022/11/23 01:49:22;;;;;;;8.52;3.72;;;;;;;;;;5064798;28;20205;-67
2022/11/23 01:51:50;;;;;;;6.45;3.90;;;;;;;;;;5065191;28;20217;-67
2022/11/23 01:54:18;;;;;;;6.38;4.45;;;;;;;;;;5064985;28;20208;-67
2022/11/23 01:56:46;;;;;;;9.98;5.20;;;;;;;;;;5065121;28;20197;-67
2022/11/23 01:59:16;;;;;;;9.27;4.25;;;;;;;;;;5064700;28;20276;-67
2022/11/23 02:01:42;;;;;;;4.93;3.88;;;;;;;;;;5064845;28;20369;-67
2022/11/23 02:04:11;;;;;;;7.07;4.40;;;;;;;;;;5064195;28;20224;-67
2022/11/23 02:06:37;;;;;;;8.35;4.22;;;;;;;;;;5064743;28;20197;-67
2022/11/23 02:09:03;;;;;;;9.00;4.97;;;;;;;;;;5064531;28;20204;-67
2022/11/23 02:11:30;;;;;;;13.90;4.82;;;;;;;;;;5064638;28;20203;-67
2022/11/23 02:13:57;;;;;;;7.22;4.50;;;;;;;;;;5064803;28;20192;-67
2022/11/23 02:16:24;;;;;;;7.28;4.22;;;;;;;;;;5064739;28;20402;-67
2022/11/23 02:18:51;;;;;;;9.10;4.45;;;;;;;;;;5064210;28;20213;-67
2022/11/23 02:21:17;;;;;;;7.18;4.45;;;;;;;;;;5064447;28;20220;-67
2022/11/23 02:23:47;;;;;;;6.20;3.85;;;;;;;;;;5064354;28;20532;-67
2022/11/23 02:26:16;;;;;;;4.25;3.05;;;;;;;;;;5064431;28;20203;-67
2022/11/23 02:28:45;;;;;;;4.55;3.20;;;;;;;;;;5064132;28;20532;-67
2022/11/23 02:31:11;;;;;;;6.25;3.40;;;;;;;;;;5064500;28;20495;-67
2022/11/23 02:33:37;;;;;;;4.53;2.67;;;;;;;;;;5064310;28;20197;-67
2022/11/23 02:36:18;;;;;;;3.67;3.03;;;;;;;;;;5064294;28;20197;-67
2022/11/23 02:38:45;;;;;;;4.22;2.92;;;;;;;;;;5063922;28;20197;-67
2022/11/23 02:41:11;;;;;;;6.25;3.03;;;;;;;;;;5064355;28;20205;-67
2022/11/23 02:43:39;;;;;;;5.97;3.13;;;;;;;;;;5064149;28;20224;-67
2022/11/23 02:46:05;;;;;;;4.15;3.17;;;;;;;;;;5064126;28;20515;-67
2022/11/23 02:48:32;;;;;;;6.00;3.25;;;;;;;;;;5063767;28;20203;-67
2022/11/23 02:50:58;;;;;;;6.30;3.60;;;;;;;;;;5063889;28;20197;-67
2022/11/23 02:53:24;;;;;;;8.48;3.00;;;;;;;;;;5064127;28;20196;-67
2022/11/23 02:55:50;;;;;;;7.28;3.42;;;;;;;;;;5064126;28;20489;-67
2022/11/23 02:58:17;;;;;;;7.65;3.90;;;;;;;;;;5063700;28;20197;-67
2022/11/23 03:00:44;;;;;;;8.95;4.10;;;;;;;;;;5063889;28;20231;-67
2022/11/23 03:03:11;;;;;;;8.95;3.72;;;;;;;;;;5063584;28;20213;-67
2022/11/23 03:05:37;;;;;;;6.30;3.70;;;;;;;;;;5063567;28;20196;-67
2022/11/23 03:08:03;;;;;;;9.15;3.70;;;;;;;;;;5063692;28;20205;-67
2022/11/23 03:10:30;;;;;;;7.38;3.50;;;;;;;;;;5063601;28;20197;-67
2022/11/23 03:12:56;;;;;;;6.50;3.83;;;;;;;;;;5063625;28;20384;-67
2022/11/23 03:15:22;;;;;;;6.63;3.47;;;;;;;;;;5063550;28;20422;-67
2022/11/23 03:17:50;;;;;;;7.75;3.60;;;;;;;;;;5063222;28;20211;-67
2022/11/23 03:20:17;;;;;;;5.43;3.35;;;;;;;;;;5063314;28;20209;-67
2022/11/23 03:22:43;;;;;;;7.00;3.40;;;;;;;;;;5063536;28;20264;-67
2022/11/23 03:25:09;;;;;;;6.70;3.58;;;;;;;;;;5063527;28;20205;-67
2022/11/23 03:27:37;;;;;;;5.32;3.15;;;;;;;;;;5063213;28;20213;-67
2022/11/23 03:30:04;;;;;;;5.55;2.92;;;;;;;;;;5063325;28;20386;-67
2022/11/23 03:32:30;;;;;;;4.70;3.20;;;;;;;;;;5063122;28;20197;-67
2022/11/23 03:34:57;;;;;;;5.70;3.85;;;;;;;;;;5063093;28;20254;-67
2022/11/23 03:37:24;;;;;;;9.80;3.65;;;;;;;;;;5063280;28;20204;-67
2022/11/23 03:39:50;;;;;;;3.83;3.08;;;;;;;;;;5062188;28;20270;-67
2022/11/23 03:42:16;;;;;;;5.57;3.40;;;;;;;;;;5063045;28;20205;-67
2022/11/23 03:44:43;;;;;;;4.00;3.28;;;;;;;;;;5062779;28;20217;-67
2022/11/23 03:47:09;;;;;;;6.97;3.15;;;;;;;;;;5062837;28;20387;-67
2022/11/23 03:49:36;;;;;;;8.35;3.83;;;;;;;;;;5062739;28;20272;-67
2022/11/23 03:52:03;;;;;;;11.27;4.53;;;;;;;;;;5063021;28;20197;-67
2022/11/23 03:54:30;;;;;;;7.57;3.72;;;;;;;;;;5062767;28;20193;-67
2022/11/23 03:56:56;;;;;;;8.52;4.55;;;;;;;;;;5062824;28;20365;-67
2022/11/23 03:59:22;;;;;;;11.05;4.72;;;;;;;;;;5062438;28;20201;-67
2022/11/23 04:01:49;;;;;;;8.75;4.65;;;;;;;;;;5062528;28;20421;-67
2022/11/23 04:04:17;;;;;;;6.40;4.22;;;;;;;;;;5062766;28;20227;-67
2022/11/23 04:06:43;;;;;;;9.75;4.82;;;;;;;;;;5062717;28;20435;-67
2022/11/23 04:09:12;;;;;;;12.15;4.25;;;;;;;;;;5062368;28;20251;-67
2022/11/23 04:11:39;;;;;;;13.63;5.03;;;;;;;;;;5062563;28;20413;-67
2022/11/23 04:14:05;;;;;;;9.23;4.15;;;;;;;;;;5062760;28;20200;-67
2022/11/23 04:16:31;;;;;;;9.50;4.60;;;;;;;;;;5062503;28;20201;-67
2022/11/23 04:18:57;;;;;;;11.10;4.57;;;;;;;;;;5061979;28;20209;-67
2022/11/23 04:21:24;;;;;;;21.00;11.55;;;;;;;;;;5062455;28;20205;-67
2022/11/23 04:23:50;;;;;;;13.85;5.72;;;;;;;;;;5062327;28;20549;-67
2022/11/23 04:26:18;;;;;;;16.05;7.10;;;;;;;;;;5062329;28;20197;-67
2022/11/23 04:28:44;;;;;;;7.63;5.07;;;;;;;;;;5061900;28;20466;-67
2022/11/23 04:31:10;;;;;;;11.50;4.93;;;;;;;;;;5062182;28;20197;-67
2022/11/23 04:33:37;;;;;;;10.95;4.88;;;;;;;;;;5062225;28;20197;-67
2022/11/23 04:36:03;;;;;;;7.47;4.47;;;;;;;;;;5062191;28;20201;-67
2022/11/23 04:38:29;;;;;;;11.15;4.40;;;;;;;;;;5061817;28;20203;-67
2022/11/23 04:40:56;;;;;;;11.15;4.75;;;;;;;;;;5062085;28;20197;-67
2022/11/23 04:43:23;;;;;;;6.93;4.30;;;;;;;;;;5061940;28;20213;-67
2022/11/23 04:45:50;;;;;;;10.38;4.53;;;;;;;;;;5062087;28;20504;-67
2022/11/23 04:48:16;;;;;;;8.15;4.15;;;;;;;;;;5061763;28;20197;-67
2022/11/23 04:50:42;;;;;;;9.93;4.22;;;;;;;;;;5061911;28;20197;-67
2022/11/23 04:53:09;;;;;;;7.22;3.50;;;;;;;;;;5061505;28;20197;-67
2022/11/23 04:55:35;;;;;;;5.95;4.05;;;;;;;;;;5062208;28;20203;-67
2022/11/23 04:58:01;;;;;;;7.30;3.90;;;;;;;;;;5061469;28;20385;-67
2022/11/23 05:00:29;;;;;;;12.43;4.20;;;;;;;;;;5062039;28;20205;-67
2022/11/23 05:02:55;;;;;;;6.30;3.85;;;;;;;;;;5061730;28;20205;-67
2022/11/23 05:05:21;;;;;;;5.38;3.55;;;;;;;;;;5061817;28;20559;-67
2022/11/23 05:07:48;;;;;;;6.38;3.22;;;;;;;;;;5061579;28;20197;-67
2022/11/23 05:10:14;;;;;;;8.63;4.05;;;;;;;;;;5061918;28;20197;-67
2022/11/23 05:12:40;;;;;;;9.93;5.22;;;;;;;;;;5061565;28;20203;-67
2022/11/23 05:15:07;;;;;;;8.07;5.20;;;;;;;;;;5061786;28;20193;-67
2022/11/23 05:17:34;;;;;;;11.02;5.78;;;;;;;;;;5061877;28;20197;-67
2022/11/23 05:20:01;;;;;;;9.50;6.25;;;;;;;;;;5061455;28;20205;-67
2022/11/23 05:22:27;;;;;;;13.50;5.85;;;;;;;;;;5062034;28;20204;-67
2022/11/23 05:24:53;;;;;;;8.10;4.70;;;;;;;;;;5061569;28;20436;-67
2022/11/23 05:27:20;;;;;;;7.45;5.10;;;;;;;;;;5061410;28;20656;-67
2022/11/23 05:29:46;;;;;;;8.52;5.05;;;;;;;;;;5061485;28;20211;-67
2022/11/23 05:32:12;;;;;;;7.80;4.68;;;;;;;;;;5061382;28;20204;-67
2022/11/23 05:34:40;;;;;;;5.28;4.63;;;;;;;;;;5061798;28;20399;-67
2022/11/23 05:37:06;;;;;;;8.27;4.75;;;;;;;;;;5061524;28;20204;-67
2022/11/23 05:39:32;;;;;;;10.10;4.93;;;;;;;;;;5061219;28;20205;-67
2022/11/23 05:41:59;;;;;;;7.47;4.72;;;;;;;;;;5061340;28;20205;-67
2022/11/23 05:44:25;;;;;;;7.68;4.50;;;;;;;;;;5061440;28;20247;-67
2022/11/23 05:46:51;;;;;;;9.32;4.90;;;;;;;;;;5061526;28;20201;-67
2022/11/23 05:49:17;;;;;;;8.35;5.15;;;;;;;;;;5061197;28;20268;-67
2022/11/23 05:51:45;;;;;;;8.13;4.80;;;;;;;;;;5061313;28;20197;-67
2022/11/23 05:54:11;;;;;;;7.53;4.88;;;;;;;;;;5061232;28;20193;-67
2022/11/23 05:56:38;;;;;;;8.68;4.72;;;;;;;;;;5061286;28;20489;-67
2022/11/23 05:59:05;;;;;;;7.43;3.92;;;;;;;;;;5060829;28;20432;-67
2022/11/23 06:01:31;;;;;;;7.53;3.65;;;;;;;;;;5061308;28;20381;-67
2022/11/23 06:03:58;;;;;;;6.03;3.90;;;;;;;;;;5063622;28;20212;-67
2022/11/23 06:06:24;;;;;;;4.82;3.75;;;;;;;;;;5064463;28;20203;-67
2022/11/23 06:08:52;;;;;;;8.38;3.80;;;;;;;;;;5064141;28;20211;-67
2022/11/23 06:11:18;;;;;;;8.73;4.43;;;;;;;;;;5064625;28;20207;-67
2022/11/23 06:13:46;;;;;;;7.03;3.90;;;;;;;;;;5064667;28;20201;-67
2022/11/23 06:16:12;;;;;;;6.28;3.80;;;;;;;;;;5064447;28;20538;-67
2022/11/23 06:18:39;;;;;;;7.47;3.13;;;;;;;;;;5064081;28;20205;-67
2022/11/23 06:21:05;;;;;;;5.00;3.33;;;;;;;;;;5064097;28;20204;-68
2022/11/23 06:23:31;;;;;;;3.85;3.30;;;;;;;;;;5063965;28;20216;-68
2022/11/23 06:26:01;;;;;;;5.20;2.67;;;;;;;;;;5063970;28;20197;-68
2022/11/23 06:28:27;;;;;;;4.20;3.17;;;;;;;;;;5063733;28;20217;-68
2022/11/23 06:30:54;;;;;;;2.80;2.60;;;;;;;;;;5064126;28;20268;-68
2022/11/23 06:33:20;;;;;;;3.92;2.67;;;;;;;;;;5064013;28;20201;-68
2022/11/23 06:35:51;;;;;;;5.75;2.45;;;;;;;;;;5063939;28;20484;-68
2022/11/23 06:38:17;;;;;;;4.55;2.53;;;;;;;;;;5063841;28;20201;-68
2022/11/23 06:40:44;;;;;;;5.53;2.78;;;;;;;;;;5063865;28;20251;-58
2022/11/23 06:43:11;;;;;;;3.47;2.50;;;;;;;;;;5063820;28;20197;-58
2022/11/23 06:45:38;;;;;;;2.72;2.53;;;;;;;;;;5063633;28;20220;-58
2022/11/23 06:48:04;;;;;;;3.97;2.60;;;;;;;;;;5052250;28;20209;-57
2022/11/23 06:50:31;;;;;;;3.30;3.00;;;;;;;;;;5053584;28;20212;-57
2022/11/23 06:52:57;;;;;;;5.72;3.63;;;;;;;;;;5049223;28;20209;-58
2022/11/23 06:55:24;;;;;;;6.68;3.50;;;;;;;;;;5057647;28;20205;-59
2022/11/23 06:57:50;;;;;;;5.55;3.63;;;;;;;;;;5057239;28;20205;-59
2022/11/23 07:00:19;;;;;;;7.40;3.40;;;;;;;;;;5055629;28;20401;-58
2022/11/23 07:02:50;;;;;;;8.32;3.95;;;;;;;;;;5054233;28;20409;-59
2022/11/23 07:05:17;;;;;;;7.97;3.65;;;;;;;;;;5048091;28;20233;-59
2022/11/23 07:07:43;;;;;;;5.13;3.90;;;;;;;;;;5047672;28;20213;-57
2022/11/23 07:10:10;;;;;;;5.20;3.80;;;;;;;;;;5042735;28;20573;-57
2022/11/23 07:12:36;;;;;;;8.40;4.07;;;;;;;;;;5036404;28;20221;-56
2022/11/23 07:15:02;;;;;;;5.47;4.03;;;;;;;;;;5044622;28;20205;-59
2022/11/23 07:17:30;;;;;;;5.03;4.05;;;;;;;;;;5051477;28;20205;-56
2022/11/23 07:19:56;;;;;;;12.98;5.47;;;;;;;;;;5051138;28;20219;-58
2022/11/23 07:22:22;;;;;;;8.27;5.22;;;;;;;;;;5059739;28;20414;-58
2022/11/23 07:24:49;;;;;;;11.43;6.55;;;;;;;;;;5060167;28;20439;-58
2022/11/23 07:27:16;;;;;;;11.85;6.40;;;;;;;;;;5056805;28;20201;-59
2022/11/23 07:29:42;;;;;;;12.15;5.75;;;;;;;;;;5054353;28;20426;-58
2022/11/23 07:32:09;;;;;;;8.07;5.28;;;;;;;;;;5059521;28;20216;-59
2022/11/23 07:34:36;;;;;;;18.75;5.53;;;;;;;;;;5042897;28;20216;-58
2022/11/23 07:37:03;;;;;;;16.15;5.85;;;;;;;;;;5050906;28;20451;-60
2022/11/23 07:39:30;;;;;;;11.95;5.18;;;;;;;;;;5058429;28;20435;-58
2022/11/23 07:41:56;;;;;;;10.40;5.00;;;;;;;;;;5059969;28;20201;-58
2022/11/23 07:44:22;;;;;;;13.02;4.70;;;;;;;;;;5057287;28;20235;-58
2022/11/23 07:46:50;;;;;;;12.23;5.00;;;;;;;;;;5057339;28;20212;-57
2022/11/23 07:49:16;;;;;;;10.25;5.22;;;;;;;;;;5049704;28;20401;-58
2022/11/23 07:51:44;;;;;;;7.57;5.03;;;;;;;;;;5043570;28;20206;-58
2022/11/23 07:54:10;;;;;;;10.55;4.75;;;;;;;;;;5046336;28;20212;-57
2022/11/23 07:56:37;;;;;;;10.48;4.90;;;;;;;;;;5059563;28;20284;-57
2022/11/23 07:59:03;;;;;;;13.70;5.43;;;;;;;;;;5055473;28;20213;-58
2022/11/23 08:01:30;;;;;;;11.63;5.70;;;;;;;;;;5038787;28;20198;-58
2022/11/23 08:03:57;;;;;;;10.77;5.68;;;;;;;;;;5043210;28;20294;-57
2022/11/23 08:06:23;;;;;;;11.00;5.70;;;;;;;;;;5059453;28;20213;-58
2022/11/23 08:08:50;;;;;;;11.95;5.95;;;;;;;;;;5058657;28;20224;-58
2022/11/23 08:11:18;;;;;;;11.93;5.32;;;;;;;;;;5058897;28;20446;-58
2022/11/23 08:13:44;;;;;;;11.48;5.60;;;;;;;;;;5058899;28;20316;-57
2022/11/23 08:16:11;;;;;;;10.30;5.65;;;;;;;;;;5058571;28;20205;-58
2022/11/23 08:18:37;;;;;;;9.07;5.30;;;;;;;;;;5058243;28;20224;-57
2022/11/23 08:21:03;;;;;;;9.02;5.53;;;;;;;;;;5058910;28;20213;-57
2022/11/23 08:23:30;;;;;;;8.65;5.15;;;;;;;;;;5045558;28;20210;-58
2022/11/23 08:25:57;;;;;;;10.88;5.85;;;;;;;;;;5038853;28;20233;-58
2022/11/23 08:28:24;;;;;;;9.95;5.32;;;;;;;;;;5053697;28;20232;-58
2022/11/23 08:30:50;;;;;;;13.35;4.90;;;;;;;;;;5056031;28;20224;-60
2022/11/23 08:33:16;;;;;;;9.80;4.93;;;;;;;;;;5038334;28;20217;-58
2022/11/23 08:35:43;;;;;;;11.02;5.20;;;;;;;;;;5042919;28;20212;-59
2022/11/23 08:38:10;;;;;;;7.88;4.78;;;;;;;;;;5042348;28;20206;-55
2022/11/23 08:40:36;;;;;;;6.05;4.47;;;;;;;;;;5053028;28;20542;-58
2022/11/23 08:43:04;;;;;;;8.48;4.40;;;;;;;;;;5054381;28;20212;-57
2022/11/23 08:45:30;;;;;;;9.35;4.82;;;;;;;;;;5038317;28;20237;-57
2022/11/23 08:47:59;;;;;;;7.63;4.70;;;;;;;;;;5050068;28;20209;-57
2022/11/23 08:50:28;;;;;;;6.70;4.32;;;;;;;;;;5058069;28;20568;-58
2022/11/23 08:52:54;;;;;;;8.85;5.20;;;;;;;;;;5057840;28;20323;-58
2022/11/23 08:55:21;;;;;;;9.68;4.57;;;;;;;;;;5057461;28;20205;-58
2022/11/23 08:57:47;;;;;;;11.25;4.93;;;;;;;;;;5057806;28;20205;-58
2022/11/23 09:00:15;;;;;;;10.10;3.70;;;;;;;;;;5058332;28;20443;-58
2022/11/23 09:02:41;;;;;;;8.93;4.53;;;;;;;;;;5057907;28;20209;-57
2022/11/23 09:05:08;;;;;;;7.22;4.25;;;;;;;;;;5054099;28;20221;-58
2022/11/23 09:07:34;;;;;;;6.13;3.78;;;;;;;;;;5042935;28;20496;-58
2022/11/23 09:10:01;;;;;;;8.52;3.33;;;;;;;;;;5037916;28;20213;-58
2022/11/23 09:12:27;;;;;;;5.32;3.88;;;;;;;;;;5037974;28;20209;-57
2022/11/23 09:14:53;;;;;;;10.38;3.53;;;;;;;;;;5038798;28;20208;-56
2022/11/23 09:17:21;;;;;;;9.50;3.20;;;;;;;;;;5045274;28;20633;-58
2022/11/23 09:19:49;;;;;;;5.90;3.03;;;;;;;;;;5037513;28;20225;-60
2022/11/23 09:22:15;;;;;;;9.82;3.17;;;;;;;;;;5037160;28;20214;-59
2022/11/23 09:24:41;;;;;;;6.47;3.05;;;;;;;;;;5037704;28;20221;-58
2022/11/23 09:27:07;;;;;;;7.40;3.10;;;;;;;;;;5037411;28;20423;-57
2022/11/23 09:29:34;;;;;;;7.72;2.88;;;;;;;;;;5038189;28;20213;-58
2022/11/23 09:32:01;;;;;;;5.78;3.33;;;;;;;;;;5044992;28;20414;-57
2022/11/23 09:34:30;;;;;;;8.85;2.97;;;;;;;;;;5038163;28;20216;-57
2022/11/23 09:36:56;;;;;;;7.53;3.17;;;;;;;;;;5037157;28;20223;-62
2022/11/23 09:39:23;;;;;;;8.25;3.28;;;;;;;;;;5041583;28;20211;-58
2022/11/23 09:41:59;;;;;;;5.55;2.97;;;;;;;;;;5043681;28;20535;-59
2022/11/23 09:44:32;;;;;;;6.65;3.63;;;;;;;;;;5054003;28;20223;-58
2022/11/23 09:47:06;;;;;;;5.60;3.25;;;;;;;;;;5061893;28;20200;-58
2022/11/23 09:49:38;;;;;;;3.00;2.78;;;;;;;;;;5062386;28;20529;-57
2022/11/23 09:52:08;;;;;;;4.70;2.85;;;;;;;;;;5043269;28;20220;-58
2022/11/23 09:54:37;;;;;;;5.40;3.50;;;;;;;;;;5041537;28;20214;-58
2022/11/23 09:57:04;;;;;;;5.80;3.53;;;;;;;;;;5042481;28;20212;-57
2022/11/23 09:59:36;;;;;;;11.23;2.97;;;;;;;;;;5041314;28;20442;-57
2022/11/23 10:02:02;;;;;;;6.88;3.10;;;;;;;;;;5041877;28;20205;-58
2022/11/23 10:04:32;;;;;;;4.10;2.72;;;;;;;;;;5042090;28;20209;-58
2022/11/23 10:07:03;;;;;;;7.50;3.10;;;;;;;;;;5041320;28;20520;-58
2022/11/23 10:09:36;;;;;;;6.05;3.45;;;;;;;;;;5040695;28;20214;-58
2022/11/23 10:12:08;;;;;;;5.63;3.40;;;;;;;;;;5059797;28;20519;-58
2022/11/23 10:14:51;;;;;;;6.22;3.78;;;;;;;;;;5061559;28;20266;-57
2022/11/23 10:17:22;;;;;;;4.80;2.60;;;;;;;;;;5061691;28;20205;-56
2022/11/23 10:19:56;;;;;;;7.05;2.50;;;;;;;;;;5061126;28;20236;-57
2022/11/23 10:22:26;;;;;;;4.85;2.80;;;;;;;;;;5061495;28;20405;-58
2022/11/23 10:24:53;;;;;;;5.45;2.92;;;;;;;;;;5051040;28;20761;-57
2022/11/23 10:27:21;;;;;;;5.38;3.00;;;;;;;;;;5061171;28;20571;-58
2022/11/23 10:29:48;;;;;;;5.45;3.15;;;;;;;;;;5061281;28;20420;-58
2022/11/23 10:32:21;;;;;;;6.30;3.17;;;;;;;;;;5056958;28;20209;-58
2022/11/23 10:34:50;;;;;;;7.25;3.33;;;;;;;;;;5041807;28;20205;-58
2022/11/23 10:37:17;;;;;;;6.03;2.83;;;;;;;;;;5041167;28;20216;-58
2022/11/23 10:39:45;;;;;;;6.47;2.88;;;;;;;;;;5046500;28;20541;-58
2022/11/23 10:42:16;;;;;;;3.85;2.65;;;;;;;;;;5061013;28;20208;-58
2022/11/23 10:44:43;;;;;;;8.00;3.03;;;;;;;;;;5048287;28;20209;-58
2022/11/23 10:47:09;;;;;;;8.82;2.83;;;;;;;;;;5056927;28;20281;-59
2022/11/23 10:49:35;;;;;;;5.15;3.17;;;;;;;;;;5046528;28;20205;-59
2022/11/23 10:52:04;;;;;;;4.25;2.90;;;;;;;;;;5051961;28;20212;-59
2022/11/23 10:54:31;;;;;;;5.60;3.00;;;;;;;;;;5059809;28;20276;-59
2022/11/23 10:57:00;;;;;;;6.88;3.25;;;;;;;;;;5060169;28;20212;-58
2022/11/23 10:59:27;;;;;;;5.50;3.22;;;;;;;;;;5060795;28;20209;-59
2022/11/23 11:01:59;;;;;;;4.88;2.58;;;;;;;;;;5061138;28;20197;-59
2022/11/23 11:04:25;;;;;;;6.28;3.08;;;;;;;;;;5054258;28;20400;-58
2022/11/23 11:06:51;;;;;;;5.30;2.88;;;;;;;;;;5054019;28;20240;-58
2022/11/23 11:09:19;;;;;;;3.97;2.90;;;;;;;;;;5052416;28;20292;-59
2022/11/23 11:11:46;;;;;;;5.45;2.50;;;;;;;;;;5059552;28;20213;-58
2022/11/23 11:14:16;;;;;;;4.68;2.63;;;;;;;;;;5045378;28;20210;-59
2022/11/23 11:16:47;;;;;;;4.47;2.60;;;;;;;;;;5040588;28;20217;-59
2022/11/23 11:19:25;;;;;;;7.05;2.45;;;;;;;;;;5039338;28;20217;-59
2022/11/23 11:21:52;;;;;;;6.20;2.90;;;;;;;;;;5060649;28;20212;-59
2022/11/23 11:24:20;;;;;;;4.47;2.83;;;;;;;;;;5059006;28;20290;-59
2022/11/23 11:26:48;;;;;;;8.30;2.95;;;;;;;;;;5059196;28;20551;-57
2022/11/23 11:29:24;;;;;;;5.03;2.50;;;;;;;;;;5059033;28;20229;-59
2022/11/23 11:31:55;;;;;;;3.25;2.53;;;;;;;;;;5058732;28;20228;-59
2022/11/23 11:34:23;;;;;;;4.30;2.50;;;;;;;;;;5059245;28;20259;-58
2022/11/23 11:36:53;;;;;;;3.22;2.20;;;;;;;;;;5059302;28;20209;-59
2022/11/23 11:39:22;;;;;;;4.28;3.25;;;;;;;;;;5043284;28;20213;-58
2022/11/23 11:41:50;;;;;;;6.43;1.98;;;;;;;;;;5043006;28;20528;-58
2022/11/23 11:44:20;;;;;;;2.45;2.00;;;;;;;;;;5058411;28;20205;-58
2022/11/23 11:46:48;;;;;;;2.33;1.95;;;;;;;;;;5039008;28;20229;-58
2022/11/23 11:49:16;;;;;;;4.32;2.25;;;;;;;;;;5038952;28;20438;-59
2022/11/23 11:51:46;;;;;;;3.95;1.98;;;;;;;;;;5038613;28;20210;-58
2022/11/23 11:54:15;;;;;;;3.65;1.90;;;;;;;;;;5049187;28;20563;-59
2022/11/23 11:56:43;;;;;;;2.08;1.88;;;;;;;;;;5058709;28;20272;-58
2022/11/23 11:59:12;;;;;;;2.95;1.58;;;;;;;;;;5048300;28;20216;-58
2022/11/23 12:01:44;;;;;;;2.38;1.60;;;;;;;;;;5039190;28;20216;-58
2022/11/23 12:04:12;;;;;;;3.42;1.33;;;;;;;;;;5056290;28;20217;-58
2022/11/23 12:06:42;;;;;;;2.80;1.33;;;;;;;;;;5058738;28;20402;-58
2022/11/23 12:09:11;;;;;;;1.52;1.30;;;;;;;;;;5058492;28;20219;-58
2022/11/23 12:11:37;;;;;;;2.20;1.75;;;;;;;;;;5045094;28;20379;-58
2022/11/23 12:14:04;;;;;;;1.38;1.25;;;;;;;;;;5039498;28;20209;-57
2022/11/23 12:16:33;;;;;;;1.98;1.35;;;;;;;;;;5039483;28;20206;-59
2022/11/23 12:19:07;;;;;;;2.83;1.25;;;;;;;;;;5038787;28;20243;-59
2022/11/23 12:21:42;;;;;;;1.90;1.10;;;;;;;;;;5039809;28;20202;-59
2022/11/23 12:24:12;;;;;;;1.05;0.60;;;;;;;;;;5038552;28;20213;-59
2022/11/23 12:26:45;;;;;;;0.63;0.63;;;;;;;;;;5039070;28;20237;-60
2022/11/23 12:29:25;;;;;;;0.93;0.73;;;;;;;;;;5038704;28;20237;-59
2022/11/23 12:31:57;;;;;;;1.13;0.93;;;;;;;;;;5059394;28;20268;-59
2022/11/23 12:34:42;;;;;;;0.60;0.60;;;;;;;;;;5059005;28;20474;-60
2022/11/23 12:37:15;;;;;;;1.80;0.90;;;;;;;;;;5042819;28;20528;-59
2022/11/23 12:39:49;;;;;;;1.02;0.60;;;;;;;;;;5045586;28;20519;-60
2022/11/23 12:42:19;;;;;;;1.13;0.70;;;;;;;;;;5052194;28;20204;-60
2022/11/23 12:44:54;;;;;;;0.75;0.70;;;;;;;;;;5047204;28;20205;-60
2022/11/23 12:47:26;;;;;;;0.77;0.68;;;;;;;;;;5049005;28;20551;-60
2022/11/23 12:49:58;;;;;;;2.53;1.30;;;;;;;;;;5054614;28;20221;-61
2022/11/23 12:52:31;;;;;;;4.05;1.23;;;;;;;;;;5049271;28;20209;-59
2022/11/23 12:55:05;;;;;;;0.98;0.93;;;;;;;;;;5038138;28;20206;-60
2022/11/23 12:57:33;;;;;;;2.75;0.93;;;;;;;;;;5039351;28;20209;-58
2022/11/23 13:00:02;;;;;;;4.35;0.70;;;;;;;;;;5055777;28;20520;-59
2022/11/23 13:02:46;;;;;;;4.80;1.05;;;;;;;;;;5055923;28;20276;-59
2022/11/23 13:05:25;;;;;;;3.72;1.00;;;;;;;;;;5049736;28;20213;-59
2022/11/23 13:08:04;;;;;;;1.45;0.80;;;;;;;;;;5041870;28;20224;-58
2022/11/23 13:10:35;;;;;;;2.72;1.10;;;;;;;;;;5055602;28;20205;-59
2022/11/23 13:13:23;;;;;;;2.10;0.70;;;;;;;;;;5040187;28;20216;-59
2022/11/23 13:16:01;;;;;;;0.55;0.55;;;;;;;;;;5041932;28;20620;-59
2022/11/23 13:18:36;;;;;;;4.63;1.02;;;;;;;;;;5042119;28;20209;-60
2022/11/23 13:21:09;;;;;;;1.10;0.90;;;;;;;;;;5043407;28;20205;-60
2022/11/23 13:23:36;;;;;;;1.00;0.90;;;;;;;;;;5047406;28;20434;-59
2022/11/23 13:26:11;;;;;;;2.47;1.00;;;;;;;;;;5052933;28;20422;-60
2022/11/23 13:28:38;;;;;;;2.30;0.98;;;;;;;;;;5042713;28;20454;-58
2022/11/23 13:31:17;;;;;;;2.20;1.00;;;;;;;;;;5062609;28;20213;-58
2022/11/23 13:33:45;;;;;;;3.55;1.25;;;;;;;;;;5054435;28;20204;-58
2022/11/23 13:36:13;;;;;;;3.67;0.75;;;;;;;;;;5062446;28;20205;-58
2022/11/23 13:38:40;;;;;;;3.17;1.02;;;;;;;;;;5048976;28;20205;-58
2022/11/23 13:41:25;;;;;;;3.05;0.70;;;;;;;;;;5061749;28;20287;-58
2022/11/23 13:43:51;;;;;;;2.55;1.00;;;;;;;;;;5061933;28;20209;-59
2022/11/23 13:46:22;;;;;;;1.98;1.00;;;;;;;;;;5061960;28;20232;-58
2022/11/23 13:48:50;;;;;;;4.05;1.40;;;;;;;;;;5050040;28;20232;-58
2022/11/23 13:51:23;;;;;;;5.15;1.10;;;;;;;;;;5041058;28;20212;-58
2022/11/23 13:53:51;;;;;;;6.88;1.05;;;;;;;;;;5039563;28;20393;-58
2022/11/23 13:56:31;;;;;;;3.78;1.20;;;;;;;;;;5045801;28;20428;-60
2022/11/23 13:58:57;;;;;;;4.57;1.20;;;;;;;;;;5057943;28;20212;-59
2022/11/23 14:01:43;;;;;;;2.28;1.00;;;;;;;;;;5042466;28;20217;-58
2022/11/23 14:04:23;;;;;;;2.25;1.00;;;;;;;;;;5038035;28;20213;-58
2022/11/23 14:06:53;;;;;;;3.50;1.13;;;;;;;;;;5038253;28;20371;-59
2022/11/23 14:09:22;;;;;;;2.83;1.00;;;;;;;;;;5054495;28;20320;-60
2022/11/23 14:11:52;;;;;;;7.32;1.63;;;;;;;;;;5044778;28;20214;-60
2022/11/23 14:14:20;;;;;;;3.50;1.05;;;;;;;;;;5037269;28;20521;-59
2022/11/23 14:16:58;;;;;;;4.10;1.10;;;;;;;;;;5037641;28;20217;-59
2022/11/23 14:19:28;;;;;;;3.15;1.00;;;;;;;;;;5048276;28;20220;-59
2022/11/23 14:22:01;;;;;;;2.10;0.95;;;;;;;;;;5058383;28;20216;-58
2022/11/23 14:24:33;;;;;;;7.35;0.80;;;;;;;;;;5057465;28;20413;-58
2022/11/23 14:27:04;;;;;;;6.30;1.70;;;;;;;;;;5057469;28;20228;-59
2022/11/23 14:29:52;;;;;;;4.80;1.00;;;;;;;;;;5057307;28;20236;-59
2022/11/23 14:32:27;;;;;;;0.75;0.75;;;;;;;;;;5056463;28;20219;-59
2022/11/23 14:34:57;;;;;;;2.25;0.82;;;;;;;;;;5057076;28;20212;-62
2022/11/23 14:37:27;;;;;;;3.35;0.93;;;;;;;;;;5057554;28;20223;-61
2022/11/23 14:39:57;;;;;;;4.95;1.00;;;;;;;;;;5051700;28;20220;-59
2022/11/23 14:42:26;;;;;;;1.02;1.02;;;;;;;;;;5037575;28;20218;-59
2022/11/23 14:44:52;;;;;;;2.55;0.98;;;;;;;;;;5038624;28;20457;-59
2022/11/23 14:47:25;;;;;;;2.85;1.25;;;;;;;;;;5046439;28;20492;-59